Duncan Falls, Ohio
Current Conditions -  °F | °C
As of 11:53 AM on Friday 24 Oct 2014 (Local Time) from KZZV Reporting Station
Clear Clear  
Wind Chill: 55°   Ceiling: Unl
Heat Index: 55°   Visibility: 10mi
Dew Point: 43°   Wind: 7mph
Humidity: 64%   Direction: 280°W
Pressure: 30.1"   Gusts: NA
Location:  39.87°N, 81.91°W
Report Text: KZZV 241553Z AUTO 28006KT 10SM CLR 13/06 A3010 RMK AO2 SLP197 T01280061
Loading
Personal Weather Stations






























Interactive Weather Map
Tropical Storm Tracking
New forecast layout! Learn more

10-Day Weather Forecast

Advertisements
Track Severe Weather on mobile